Date,TemperatureHighF,TemperatureAvgF,TemperatureLowF,DewpointHighF,DewpointAvgF,DewpointLowF,HumidityHigh,HumidityAvg,HumidityLow,PressureMaxIn,PressureMinIn,WindSpeedMaxMPH,WindSpeedAvgMPH,GustSpeedMaxMPH,PrecipitationSumIn
2013-1-1,58,50,42,58,47,38,98,90,72,30.28,30.00,14,3,18,0.19
2013-1-2,44,40,37,38,32,29,89,73,61,30.38,30.27,13,2,15,0.00
2013-1-3,46,41,37,33,32,30,83,69,57,30.52,30.37,11,2,15,0.00
2013-1-4,42,40,37,39,37,33,94,90,69,30.58,30.45,14,2,14,0.10
2013-1-5,55,44,36,45,40,34,98,87,67,30.46,30.30,6,0,0,0.01
2013-1-6,61,45,35,39,34,31,95,69,36,30.46,30.34,16,1,16,0.01
2013-1-7,55,45,34,46,37,30,86,73,55,30.39,30.11,12,1,12,0.00
2013-1-8,55,51,47,55,50,46,100,97,87,30.10,29.89,12,3,13,0.47
2013-1-9,64,56,49,59,55,48,98,95,82,30.08,29.91,18,2,21,1.35
2013-1-10,68,54,45,50,46,42,98,77,45,30.10,30.03,15,1,21,0.01
2013-1-11,70,58,44,65,55,42,100,89,73,30.08,29.87,13,2,18,0.00
2013-1-12,73,67,52,68,63,42,97,87,59,29.89,29.70,19,3,20,0.01
2013-1-13,56,46,39,42,33,28,69,60,43,30.22,29.88,18,4,24,0.00
2013-1-14,51,42,35,34,30,24,73,64,52,30.29,30.16,16,5,19,0.00
2013-1-15,42,37,35,36,33,26,95,85,69,30.32,30.15,14,2,17,0.02
2013-1-16,57,41,29,26,22,15,77,50,21,30.43,30.26,16,1,22,0.00
2013-1-17,68,50,34,38,33,22,75,55,30,30.54,30.37,13,1,15,0.00
2013-1-18,66,49,37,38,35,32,83,60,32,30.57,30.38,9,1,12,0.00
2013-1-19,69,52,37,49,42,35,95,71,40,30.38,30.21,15,1,16,0.00
2013-1-20,72,55,41,56,47,39,95,77,47,30.31,30.15,10,0,0,0.00
2013-1-21,75,58,45,58,49,43,94,75,45,30.29,30.18,8,0,0,0.00
2013-1-22,74,58,46,54,48,42,86,70,46,30.36,30.25,11,1,17,0.00
2013-1-23,75,60,47,60,53,46,97,81,55,30.40,30.25,12,1,16,0.00
2013-1-24,80,65,58,64,60,56,97,84,55,30.32,30.16,11,1,14,0.01
2013-1-25,80,67,59,64,61,57,96,82,56,30.20,30.07,14,2,18,0.00
2013-1-26,70,61,53,62,56,51,96,85,71,30.21,30.08,11,2,12,0.00
2013-1-27,78,67,58,66,62,57,97,87,66,30.15,30.00,17,4,24,0.00
2013-1-28,74,70,68,67,66,65,94,86,76,30.09,29.91,18,6,24,0.00
2013-1-29,84,70,57,67,57,26,91,67,31,29.92,29.54,24,6,27,0.00
2013-1-30,62,51,38,29,22,14,57,33,16,30.29,29.86,29,3,34,0.00
2013-1-31,69,49,32,30,24,20,71,40,17,30.38,30.24,12,1,18,0.00
2013-2-1,72,54,43,47,39,31,78,60,28,30.39,30.26,14,1,18,0.00
2013-2-2,78,68,57,56,51,47,74,57,41,30.33,30.21,7,0,0,0.00
2013-2-3,71,60,50,54,44,36,85,58,36,30.38,30.08,14,2,18,0.00
2013-2-4,78,64,57,61,57,53,95,80,52,30.07,29.85,13,2,14,0.00
2013-2-5,84,66,51,55,47,36,96,57,19,30.02,29.91,8,0,0,0.01
2013-2-6,74,64,58,61,58,52,95,82,59,30.03,29.88,12,2,14,0.02
2013-2-7,80,65,58,63,57,43,96,77,44,30.10,29.92,12,2,16,0.00
2013-2-8,69,59,48,48,38,31,74,49,25,30.26,30.10,16,3,19,0.00
2013-2-9,67,59,52,66,56,39,98,91,55,30.13,29.84,15,4,20,0.04
2013-2-10,68,64,56,66,47,33,97,61,30,30.06,29.81,18,2,20,0.05
2013-2-11,60,55,50,50,46,39,96,72,54,30.09,30.00,18,4,21,0.00
2013-2-12,76,59,50,58,45,25,98,67,23,30.08,29.87,15,2,19,0.02
2013-2-13,68,51,39,36,33,29,78,52,26,30.20,30.07,13,1,21,0.00
2013-2-14,71,52,36,41,37,32,85,60,31,30.20,30.06,11,1,18,0.00
2013-2-15,69,52,40,47,38,25,89,62,31,30.43,30.13,16,3,18,0.00
2013-2-16,68,50,32,32,28,24,72,44,24,30.53,30.29,10,1,13,0.00
2013-2-17,71,55,35,53,40,29,81,58,35,30.28,30.04,20,4,24,0.00
2013-2-18,82,67,59,61,50,28,88,60,26,30.10,29.89,17,4,22,0.00
2013-2-19,66,57,44,35,32,28,67,41,25,30.29,30.10,20,5,22,0.00
2013-2-20,68,59,52,65,52,29,95,80,34,30.16,29.70,22,6,27,0.01
2013-2-21,81,69,55,66,45,23,92,52,13,29.88,29.61,18,3,27,0.00
2013-2-22,63,54,48,40,35,25,70,49,32,30.06,29.89,17,3,18,0.00
2013-2-23,76,56,42,42,36,29,64,48,27,30.10,29.91,10,1,12,0.00
2013-2-24,69,57,41,59,49,36,94,75,59,29.96,29.65,16,3,19,0.00
2013-2-25,66,57,46,60,36,18,97,52,17,29.92,29.62,32,6,37,0.01
2013-2-26,53,43,38,30,29,27,66,58,41,30.01,29.91,17,2,18,0.00
2013-4-3,51,51,51,50,50,50,95,95,94,30.08,30.07,4,2,0,0.41
2013-4-24,62,60,58,41,40,38,53,48,42,30.31,30.21,13,3,14,0.00
2013-4-25,68,61,56,51,45,41,68,56,42,30.37,30.23,14,3,18,0.00
2013-4-26,78,68,58,71,63,49,97,84,65,30.24,30.06,12,2,18,0.01
2013-4-27,82,72,65,69,67,63,95,85,62,30.12,29.96,18,2,24,0.45
2013-4-28,83,70,59,66,63,58,98,79,52,30.05,29.90,15,1,18,0.01
2013-4-29,87,71,65,67,65,61,97,82,43,29.97,29.80,21,2,29,0.20
2013-4-30,83,71,63,68,65,62,98,83,56,29.87,29.76,12,1,14,0.00
2013-5-1,90,76,66,70,67,64,96,76,51,29.95,29.82,12,2,14,0.00
2013-5-2,75,57,49,68,50,37,96,77,60,30.39,29.86,21,5,29,0.63
2013-5-3,72,56,45,38,34,29,69,45,21,30.41,30.14,23,3,23,0.00
2013-5-4,83,63,44,44,38,32,78,46,16,30.15,29.93,12,0,15,0.00
2013-5-5,84,66,51,48,44,39,74,48,23,30.18,30.02,12,1,15,0.00
2013-5-6,76,64,50,53,49,45,81,59,40,30.19,30.04,8,0,0,0.00
2013-5-7,86,69,52,60,53,48,89,61,30,30.13,29.97,15,1,16,0.00
2013-5-8,85,71,61,66,63,58,92,75,51,30.05,29.91,15,4,19,0.00
2013-5-9,79,72,62,72,67,60,94,85,76,30.01,29.86,17,3,21,0.06
2013-5-10,81,69,60,68,63,59,97,81,52,30.04,29.86,25,3,26,0.36
2013-5-11,84,71,61,63,59,53,92,68,45,30.19,30.03,14,3,20,0.00
2013-5-12,79,69,59,55,52,49,69,55,38,30.28,30.15,14,2,17,0.00
2013-5-13,85,71,55,60,53,47,77,56,32,30.31,30.19,13,1,16,0.00
2013-5-14,85,72,58,67,62,55,92,72,49,30.26,30.04,17,3,24,0.00
2013-5-15,87,75,69,72,69,66,95,81,57,30.13,29.86,21,5,24,0.00
2013-5-16,96,79,70,74,70,67,90,76,43,29.89,29.73,20,5,20,0.00
2013-5-17,96,81,73,74,71,68,91,74,44,29.93,29.81,15,4,18,0.00
2013-5-18,95,80,71,72,68,64,94,70,42,29.95,29.84,21,4,24,0.00
2013-5-19,92,80,71,73,70,65,90,72,51,29.89,29.74,19,5,21,0.00
2013-5-20,93,80,70,72,70,67,95,74,49,29.87,29.72,19,5,21,0.00
2013-5-21,90,80,72,73,71,62,93,75,56,29.89,29.72,22,4,23,0.00
2013-5-22,91,79,63,73,66,57,83,65,53,29.95,29.82,16,3,20,0.00
2013-5-23,91,80,72,72,71,69,92,75,52,30.04,29.88,18,4,20,0.00
2013-5-24,77,72,67,73,70,65,97,93,77,30.14,30.03,15,2,15,1.53
2013-5-25,78,72,68,71,69,67,98,92,74,30.19,30.06,15,3,21,1.11
2013-5-26,83,75,69,74,70,66,97,86,70,30.13,30.00,14,3,17,0.03
2013-5-27,89,77,68,75,70,66,96,82,59,30.07,29.88,17,4,24,0.00
2013-5-28,88,78,72,73,70,69,91,78,58,29.95,29.79,21,6,23,0.00
2013-5-29,85,76,72,77,71,69,93,84,69,29.92,29.75,20,6,26,0.04
2013-5-30,90,80,73,75,72,70,92,79,60,29.87,29.79,15,5,19,0.00
2013-5-31,94,81,73,77,73,71,93,79,53,29.91,29.78,15,5,19,0.00
2013-6-1,95,82,75,76,73,71,91,75,50,29.92,29.82,18,4,22,0.00
2013-6-2,86,76,64,73,66,60,96,75,44,30.08,29.92,18,2,27,0.95
2013-6-3,92,78,63,70,65,60,91,68,45,30.02,29.87,9,0,0,0.00
2013-6-4,93,79,68,72,69,66,96,73,43,29.95,29.83,11,2,15,0.00
2013-6-5,91,79,67,72,68,65,95,73,45,29.92,29.76,12,1,14,0.00
2013-6-6,94,79,67,72,68,65,96,72,44,29.95,29.79,18,1,21,0.00
2013-6-7,80,73,67,70,66,63,92,79,66,30.02,29.91,12,2,16,0.02
2013-6-8,90,76,62,73,67,58,92,74,53,29.97,29.82,18,2,18,0.00
2013-6-9,88,77,72,76,72,66,96,84,61,29.99,29.87,12,1,14,0.30
2013-6-10,93,80,70,75,71,68,96,76,49,30.03,29.93,13,1,15,0.00
2013-6-11,92,77,68,74,71,65,96,84,52,30.07,30.00,27,1,32,0.31
2013-6-12,91,77,70,77,72,69,98,87,58,30.09,29.99,17,2,22,0.03
2013-6-13,90,77,72,77,73,68,97,87,63,30.10,29.97,20,1,24,0.01
2013-6-14,86,78,72,76,73,70,96,87,68,30.04,29.93,8,0,0,0.02
2013-6-15,91,81,74,76,74,71,97,81,56,30.03,29.92,9,1,13,0.00
2013-6-16,95,83,74,75,73,69,95,74,44,30.05,29.92,14,3,15,0.00
2013-6-17,95,84,74,75,72,65,93,72,41,30.03,29.88,13,3,19,0.00
2013-6-18,96,83,74,74,71,68,93,70,43,30.03,29.90,9,1,14,0.00
2013-6-19,96,84,73,73,71,65,93,69,39,30.02,29.92,13,2,16,0.00
2013-6-20,96,83,71,74,71,67,93,70,44,30.08,29.97,20,4,20,0.00
2013-6-21,95,83,74,74,70,62,94,68,38,30.11,29.99,19,4,19,0.00
2013-6-22,96,83,72,73,70,63,94,67,38,30.07,29.92,15,4,18,0.00
2013-6-23,94,82,74,73,69,60,94,68,37,30.02,29.91,14,4,18,0.00
2013-6-24,97,83,74,74,71,66,93,69,41,30.05,29.92,18,5,23,0.00
2013-6-25,98,84,74,73,70,65,92,67,35,30.03,29.89,19,5,23,0.00
2013-6-26,99,85,74,74,71,67,91,67,40,30.00,29.90,20,5,20,0.00
2013-6-27,102,86,74,73,68,59,89,61,27,30.05,29.92,14,2,14,0.00
2013-6-28,102,78,73,72,70,64,93,80,31,30.03,29.91,9,1,0,0.00
2013-6-30,77,76,75,68,67,67,77,75,73,29.90,29.88,3,0,0,0.30
2013-7-1,93,80,71,67,59,54,81,51,31,30.04,29.90,12,2,15,0.00
2013-7-2,96,79,63,62,56,50,78,49,24,30.11,29.99,9,1,12,0.00
2013-7-3,97,81,66,64,52,42,65,40,18,30.06,29.92,11,1,13,0.00
2013-7-4,96,81,66,70,62,52,88,56,25,30.02,29.90,12,1,14,0.00
2013-7-5,97,83,67,72,64,58,89,58,30,30.01,29.85,15,1,16,0.00
2013-7-6,97,83,70,73,67,59,90,62,30,29.97,29.83,12,1,19,0.00
2013-7-7,96,80,73,74,72,68,95,78,43,30.00,29.90,19,1,25,0.24
2013-7-8,86,77,72,75,72,68,96,85,62,30.15,30.00,19,1,19,0.27
2013-7-9,97,82,71,76,72,68,98,76,41,30.19,30.04,18,2,19,0.02
2013-7-10,98,84,72,74,71,68,96,70,39,30.13,29.95,11,1,15,0.00
2013-7-11,98,84,72,74,69,64,95,65,35,30.04,29.91,10,1,13,0.00
2013-7-12,101,85,73,74,69,59,94,63,29,30.00,29.89,13,1,13,0.00
2013-7-13,102,87,71,71,65,57,89,51,24,30.01,29.86,13,0,13,0.00
2013-7-14,100,82,72,73,68,64,88,67,34,29.93,29.86,22,2,24,0.00
2013-7-15,82,74,69,74,71,67,97,92,76,30.05,29.90,25,2,28,1.72
2013-7-16,85,74,71,78,72,70,97,94,75,30.14,30.04,16,2,20,0.63
2013-7-17,84,75,70,74,71,69,96,87,64,30.21,30.16,23,3,25,0.08
2013-7-18,84,74,70,75,71,69,97,92,68,30.19,30.16,9,1,14,0.02